Time;durP1;ratioP1;P1;durP2;ratioP2;P2;SDS_P1;SDS_P2;PMS_P1;PMS_P2;Temp;Humidity;BMP_temperature;BMP_pressure;BME280_temperature;BME280_humidity;BME280_pressure;Samples;Min_cycle;Max_cycle;Signal;HPM_P1;HPM_P2
2023/08/25 00:00:31;;;;;;;5.38;2.38;;;;;;;26.29;52.27;100685.44;5050854;28;20459;-63
2023/08/25 00:02:56;;;;;;;2.72;1.77;;;;;;;26.29;52.56;100679.94;5033984;28;20029;-63
2023/08/25 00:05:21;;;;;;;4.97;1.90;;;;;;;26.30;52.38;100673.34;5051769;28;20041;-64
2023/08/25 00:07:47;;;;;;;3.90;1.65;;;;;;;26.32;52.35;100686.88;5035228;28;20059;-64
2023/08/25 00:10:13;;;;;;;3.70;1.67;;;;;;;26.30;52.64;100678.84;5055702;28;20075;-64
2023/08/25 00:12:38;;;;;;;5.57;2.20;;;;;;;26.29;52.27;100682.69;5055853;28;20074;-63
2023/08/25 00:15:04;;;;;;;8.15;2.28;;;;;;;26.26;52.37;100682.31;5055560;28;20029;-64
2023/08/25 00:17:30;;;;;;;6.50;1.80;;;;;;;26.24;52.46;100673.47;5054365;28;20052;-64
2023/08/25 00:19:56;;;;;;;4.68;2.00;;;;;;;26.22;52.08;100681.09;5054504;28;20033;-63
2023/08/25 00:22:21;;;;;;;3.75;2.55;;;;;;;26.20;52.37;100677.75;5037900;28;20029;-64
2023/08/25 00:24:47;;;;;;;3.58;2.00;;;;;;;26.16;52.35;100669.16;5055548;28;20079;-64
2023/08/25 00:27:12;;;;;;;3.75;2.05;;;;;;;26.16;51.92;100676.56;5037783;28;20090;-63
2023/08/25 00:29:37;;;;;;;3.92;1.88;;;;;;;26.12;52.20;100658.84;5055553;28;20053;-63
2023/08/25 00:32:03;;;;;;;3.53;1.70;;;;;;;26.10;52.20;100663.75;5055178;28;20025;-64
2023/08/25 00:34:28;;;;;;;3.45;2.20;;;;;;;26.05;52.59;100653.44;5054535;28;20041;-63
2023/08/25 00:36:54;;;;;;;1.95;1.73;;;;;;;26.07;52.63;100650.47;5054207;28;20029;-63
2023/08/25 00:39:19;;;;;;;2.38;1.30;;;;;;;26.03;52.48;100650.09;5055327;28;20408;-63
2023/08/25 00:41:44;;;;;;;2.28;1.63;;;;;;;26.00;52.34;100645.06;5054190;28;20044;-64
2023/08/25 00:44:10;;;;;;;7.15;2.20;;;;;;;26.00;52.34;100647.81;5054017;28;20061;-63
2023/08/25 00:46:35;;;;;;;4.95;2.75;;;;;;;25.98;52.79;100650.81;5053751;28;20033;-63
2023/08/25 00:49:01;;;;;;;2.92;1.95;;;;;;;25.96;52.13;100655.69;5054048;28;20084;-63
2023/08/25 00:51:26;;;;;;;2.97;1.73;;;;;;;25.94;52.29;100652.34;5037522;28;20033;-63
2023/08/25 00:53:52;;;;;;;2.72;1.63;;;;;;;25.89;52.61;100649.47;5037525;28;20058;-63
2023/08/25 00:56:18;;;;;;;3.78;1.67;;;;;;;25.87;52.49;100648.88;5054004;28;20021;-63
2023/08/25 00:58:44;;;;;;;4.32;1.67;;;;;;;25.88;52.36;100658.75;5053897;28;20060;-64
2023/08/25 01:01:11;;;;;;;3.25;1.83;;;;;;;25.89;52.46;100657.69;5037291;28;20451;-64
2023/08/25 01:03:38;;;;;;;2.72;1.65;;;;;;;25.92;52.60;100654.50;5054997;28;20040;-63
2023/08/25 01:06:04;;;;;;;3.63;1.73;;;;;;;25.96;52.91;100661.16;5054936;28;20033;-63
2023/08/25 01:08:30;;;;;;;3.45;1.63;;;;;;;25.97;52.73;100657.38;5055119;28;20503;-63
2023/08/25 01:11:03;;;;;;;4.07;1.90;;;;;;;26.02;52.79;100649.25;5053515;28;20056;-64
2023/08/25 01:13:39;;;;;;;1.90;1.48;;;;;;;26.03;53.11;100650.09;5037019;28;20112;-63
2023/08/25 01:16:05;;;;;;;2.08;1.55;;;;;;;26.01;53.11;100649.50;5053450;28;20052;-63
2023/08/25 01:18:33;;;;;;;5.95;1.63;;;;;;;26.00;52.62;100645.91;5053571;28;20508;-63
2023/08/25 01:20:58;;;;;;;3.40;1.27;;;;;;;26.02;52.78;100649.25;5052828;28;20025;-63
2023/08/25 01:23:47;;;;;;;2.45;1.52;;;;;;;26.02;52.76;100649.25;5053349;28;20025;-64
2023/08/25 01:26:12;;;;;;;3.80;1.52;;;;;;;26.03;52.61;100661.09;5054602;28;20527;-63
2023/08/25 01:28:41;;;;;;;3.03;1.30;;;;;;;26.03;52.69;100656.44;5053323;28;20037;-63
2023/08/25 01:31:06;;;;;;;3.58;1.27;;;;;;;26.08;52.70;100649.38;5053247;28;20029;-63
2023/08/25 01:33:32;;;;;;;2.17;1.00;;;;;;;26.12;53.18;100656.09;5053074;28;20120;-63
2023/08/25 01:36:20;;;;;;;2.47;1.20;;;;;;;26.15;52.51;100651.00;5054080;28;20145;-64
2023/08/25 01:38:45;;;;;;;3.67;1.17;;;;;;;26.17;52.82;100654.34;5053029;28;20485;-63
2023/08/25 01:41:24;;;;;;;3.03;1.30;;;;;;;26.22;52.08;100648.13;5054451;28;20054;-63
2023/08/25 01:43:51;;;;;;;4.07;1.00;;;;;;;26.25;52.76;100636.69;5036375;28;20113;-63
2023/08/25 01:46:18;;;;;;;2.90;1.38;;;;;;;26.29;52.21;100638.75;5054212;28;20128;-63
2023/08/25 01:48:45;;;;;;;1.83;1.13;;;;;;;26.30;52.69;100634.09;5054229;28;20025;-63
2023/08/25 01:51:11;;;;;;;4.72;1.10;;;;;;;26.33;52.21;100636.34;5036101;28;20033;-63
2023/08/25 01:53:38;;;;;;;3.17;1.10;;;;;;;26.34;53.12;100624.28;5052744;28;20029;-63
2023/08/25 01:56:03;;;;;;;4.57;1.13;;;;;;;26.34;52.60;100618.78;5053968;28;20439;-63
2023/08/25 01:58:28;;;;;;;3.22;1.25;;;;;;;26.31;52.43;100611.03;5052959;28;20045;-63
2023/08/25 02:00:54;;;;;;;8.40;1.50;;;;;;;26.31;52.69;100608.28;5053746;28;20401;-63
2023/08/25 02:03:19;;;;;;;1.77;1.25;;;;;;;26.27;52.49;100609.84;5052424;28;20057;-62
2023/08/25 02:05:45;;;;;;;2.17;0.98;;;;;;;26.26;52.01;100613.66;5053393;28;20029;-62
2023/08/25 02:08:10;;;;;;;5.72;1.48;;;;;;;26.23;51.98;100612.22;5052566;28;20025;-62
2023/08/25 02:10:35;;;;;;;2.53;1.48;;;;;;;26.20;51.91;100611.84;5035702;28;20033;-62
2023/08/25 02:13:01;;;;;;;2.97;1.30;;;;;;;26.16;52.36;100616.16;5052240;28;20025;-62
2023/08/25 02:15:27;;;;;;;2.30;1.15;;;;;;;26.15;52.43;100615.31;5054033;28;20037;-62
2023/08/25 02:17:52;;;;;;;3.75;1.10;;;;;;;26.11;51.89;100610.47;5053238;28;20120;-62
2023/08/25 02:20:18;;;;;;;6.55;1.90;;;;;;;26.09;52.63;100610.72;5052151;28;20033;-62
2023/08/25 02:22:44;;;;;;;4.68;1.70;;;;;;;26.07;52.66;100609.28;5052135;28;20050;-62
2023/08/25 02:25:09;;;;;;;3.92;1.10;;;;;;;26.04;52.35;100607.84;5053316;28;20515;-62
2023/08/25 02:27:34;;;;;;;4.20;1.20;;;;;;;26.01;52.09;100595.44;5052203;28;20029;-62
2023/08/25 02:30:00;;;;;;;2.15;1.55;;;;;;;25.97;52.14;100596.97;5052410;28;20041;-62
2023/08/25 02:32:25;;;;;;;1.55;1.02;;;;;;;25.93;52.18;100595.78;5052521;28;20491;-62
2023/08/25 02:34:50;;;;;;;2.28;0.90;;;;;;;25.92;52.15;100599.59;5051735;28;20052;-62
2023/08/25 02:37:16;;;;;;;3.13;1.15;;;;;;;25.88;52.47;100581.91;5035280;28;20102;-62
2023/08/25 02:39:42;;;;;;;1.83;1.02;;;;;;;25.87;52.22;100593.97;5051889;28;20051;-62
2023/08/25 02:42:07;;;;;;;4.22;1.27;;;;;;;25.86;52.68;100577.72;5053395;28;20516;-62
2023/08/25 02:44:32;;;;;;;1.92;1.40;;;;;;;25.85;52.68;100573.31;5053112;28;20033;-62
2023/08/25 02:46:59;;;;;;;1.70;1.23;;;;;;;25.82;52.89;100579.28;5051734;28;20079;-62
2023/08/25 02:49:24;;;;;;;2.72;1.55;;;;;;;25.80;52.58;100563.03;5052044;28;20040;-62
2023/08/25 02:51:49;;;;;;;3.80;1.42;;;;;;;25.77;52.65;100568.97;5045146;28;20076;-62
2023/08/25 02:54:15;;;;;;;5.32;1.63;;;;;;;25.74;52.35;100572.19;5061147;28;20021;-62
2023/08/25 02:56:40;;;;;;;1.40;1.17;;;;;;;25.75;52.47;100560.16;5051724;28;20033;-62
2023/08/25 02:59:05;;;;;;;5.80;1.45;;;;;;;25.74;52.92;100572.19;5051901;28;20037;-62
2023/08/25 03:01:31;;;;;;;3.60;1.38;;;;;;;25.74;52.47;100579.63;5050320;28;20124;-62
2023/08/25 03:03:56;;;;;;;4.10;1.55;;;;;;;25.72;52.60;100570.75;5051557;28;20485;-62
2023/08/25 03:06:22;;;;;;;4.80;1.40;;;;;;;25.69;52.64;100569.31;5051415;28;20041;-62
2023/08/25 03:08:47;;;;;;;4.82;1.52;;;;;;;25.63;52.77;100567.50;5052751;28;20131;-62
2023/08/25 03:11:13;;;;;;;2.30;1.25;;;;;;;25.61;52.62;100553.19;5052766;28;20036;-62
2023/08/25 03:13:38;;;;;;;6.75;1.30;;;;;;;25.57;52.21;100553.91;5053135;28;20059;-63
2023/08/25 03:16:04;;;;;;;6.28;1.98;;;;;;;25.55;52.27;100554.13;5051129;28;20049;-63
2023/08/25 03:18:29;;;;;;;3.03;1.67;;;;;;;25.52;52.67;100560.06;5052516;28;20044;-63
2023/08/25 03:20:55;;;;;;;4.15;1.80;;;;;;;25.47;52.38;100535.25;5052984;28;20543;-63
2023/08/25 03:23:21;;;;;;;4.72;1.42;;;;;;;25.46;52.24;100539.88;5051323;28;20041;-63
2023/08/25 03:25:46;;;;;;;4.95;1.48;;;;;;;25.41;52.15;100536.16;5052605;28;20566;-63
2023/08/25 03:28:12;;;;;;;3.15;0.82;;;;;;;25.39;52.28;100538.31;5051389;28;20025;-63
2023/08/25 03:30:37;;;;;;;3.45;1.35;;;;;;;25.36;52.17;100538.75;5051268;28;20036;-63
2023/08/25 03:33:04;;;;;;;1.88;1.10;;;;;;;25.34;52.24;100530.78;5051540;28;20552;-63
2023/08/25 03:35:36;;;;;;;5.30;1.20;;;;;;;25.31;52.70;100538.63;5052878;28;20034;-63
2023/08/25 03:38:02;;;;;;;4.45;1.40;;;;;;;25.33;52.71;100533.75;5030792;28;20095;-63
2023/08/25 03:40:28;;;;;;;5.63;1.42;;;;;;;25.30;52.32;100542.44;5052905;28;20056;-63
2023/08/25 03:42:54;;;;;;;5.88;1.52;;;;;;;25.29;52.53;100538.03;5052793;28;20493;-63
2023/08/25 03:45:20;;;;;;;5.43;1.33;;;;;;;25.26;52.69;100538.50;5056469;28;20447;-63
2023/08/25 03:47:45;;;;;;;3.13;1.52;;;;;;;25.26;52.77;100538.50;5038536;28;20091;-63
2023/08/25 03:50:11;;;;;;;3.85;1.73;;;;;;;25.23;53.02;100544.44;5055197;28;20032;-63
2023/08/25 03:52:36;;;;;;;2.50;1.15;;;;;;;25.21;52.36;100541.09;5056428;28;20036;-63
2023/08/25 03:55:02;;;;;;;4.45;1.27;;;;;;;25.17;52.65;100535.22;5055253;28;20120;-63
2023/08/25 03:57:28;;;;;;;1.55;0.88;;;;;;;25.15;52.76;100542.03;5056521;28;20052;-63
2023/08/25 03:59:53;;;;;;;4.55;1.38;;;;;;;25.11;52.43;100540.78;5056269;28;20036;-63
2023/08/25 04:02:18;;;;;;;6.60;1.20;;;;;;;25.09;52.43;100540.19;5056116;28;20033;-63
2023/08/25 04:04:44;;;;;;;1.38;0.98;;;;;;;25.08;52.42;100535.78;5056406;28;20451;-63
2023/08/25 04:07:09;;;;;;;1.42;1.10;;;;;;;25.05;52.49;100537.06;5056082;28;20052;-63
2023/08/25 04:09:35;;;;;;;3.80;1.80;;;;;;;25.04;52.52;100529.09;5056259;28;20108;-63
2023/08/25 04:12:00;;;;;;;5.18;1.23;;;;;;;25.04;52.55;100529.09;5055836;28;20544;-63
2023/08/25 04:14:26;;;;;;;3.75;1.35;;;;;;;25.03;52.88;100524.66;5054885;28;20037;-63
2023/08/25 04:16:51;;;;;;;5.68;1.25;;;;;;;25.03;52.57;100527.41;5057632;28;20163;-64
2023/08/25 04:19:18;;;;;;;6.22;1.40;;;;;;;25.03;52.95;100527.41;5060384;28;20401;-63
2023/08/25 04:21:43;;;;;;;4.78;1.58;;;;;;;25.00;52.91;100527.88;5059295;28;20025;-63
2023/08/25 04:24:09;;;;;;;5.50;1.27;;;;;;;24.99;52.79;100520.69;5061204;28;20086;-63
2023/08/25 04:26:34;;;;;;;3.28;1.50;;;;;;;24.99;52.99;100526.19;5029748;28;20580;-65
2023/08/25 04:29:00;;;;;;;2.17;1.42;;;;;;;24.96;52.84;100526.66;5061694;28;20059;-62
2023/08/25 04:31:25;;;;;;;2.60;1.10;;;;;;;25.00;52.74;100527.88;5057480;28;20055;-61
2023/08/25 04:33:53;;;;;;;1.90;1.38;;;;;;;24.97;52.84;100523.69;5054927;28;20112;-61
2023/08/25 04:36:19;;;;;;;3.83;1.48;;;;;;;24.98;52.68;100528.13;5056159;28;20124;-62
2023/08/25 04:38:44;;;;;;;2.85;1.70;;;;;;;24.99;52.90;100526.19;5054559;28;20056;-62
2023/08/25 04:41:09;;;;;;;6.47;2.03;;;;;;;24.97;52.93;100528.31;5055431;28;20488;-62
2023/08/25 04:43:35;;;;;;;5.72;2.50;;;;;;;24.99;52.85;100528.94;5054241;28;20052;-62
2023/08/25 04:46:00;;;;;;;3.00;1.42;;;;;;;24.99;52.93;100539.88;5055348;28;20037;-62
2023/08/25 04:48:26;;;;;;;2.97;1.15;;;;;;;24.96;52.82;100527.47;5054800;28;20484;-62
2023/08/25 04:50:51;;;;;;;2.17;1.17;;;;;;;24.97;53.05;100528.31;5054701;28;20036;-63
2023/08/25 04:53:18;;;;;;;1.90;1.15;;;;;;;24.94;52.53;100524.16;5036083;28;20037;-62
2023/08/25 04:55:44;;;;;;;2.92;1.30;;;;;;;24.96;52.65;100534.91;5053041;28;20404;-62
2023/08/25 04:58:09;;;;;;;6.07;1.30;;;;;;;24.97;52.80;100528.31;5055185;28;20039;-62
2023/08/25 05:00:34;;;;;;;6.68;2.00;;;;;;;24.99;52.65;100526.19;5053908;28;20037;-62
2023/08/25 05:03:00;;;;;;;5.30;1.33;;;;;;;25.01;52.84;100524.91;5053890;28;20182;-62
2023/08/25 05:05:25;;;;;;;2.72;2.20;;;;;;;25.00;52.61;100523.22;5054921;28;20044;-62
2023/08/25 05:07:50;;;;;;;3.00;1.65;;;;;;;25.01;52.61;100527.66;5055168;28;20548;-62
2023/08/25 05:10:16;;;;;;;1.67;1.50;;;;;;;25.05;52.86;100530.75;5053799;28;20025;-62
2023/08/25 05:12:41;;;;;;;3.45;1.65;;;;;;;25.08;52.93;100524.81;5054798;28;20121;-62
2023/08/25 05:15:08;;;;;;;4.70;2.33;;;;;;;25.12;52.55;100518.66;5054623;28;20037;-62
2023/08/25 05:17:33;;;;;;;3.70;1.50;;;;;;;25.16;52.51;100516.25;5054705;28;20413;-61
2023/08/25 05:19:58;;;;;;;2.40;1.35;;;;;;;25.23;52.95;100511.53;5054888;28;20504;-62
2023/08/25 05:22:24;;;;;;;1.95;1.45;;;;;;;25.29;52.89;100505.13;5053602;28;20048;-62
2023/08/25 05:24:51;;;;;;;2.38;1.65;;;;;;;25.36;53.22;100500.38;5054923;28;20472;-62
2023/08/25 05:27:16;;;;;;;3.22;1.85;;;;;;;25.42;52.83;100493.94;5053488;28;20041;-61
2023/08/25 05:29:42;;;;;;;2.65;1.52;;;;;;;25.48;53.27;100509.50;5053167;28;20501;-61
2023/08/25 05:32:07;;;;;;;3.10;1.70;;;;;;;25.54;52.70;100492.13;5054784;28;20036;-61
2023/08/25 05:34:33;;;;;;;7.50;2.15;;;;;;;25.67;53.01;100483.66;5053257;28;20037;-62
2023/08/25 05:36:59;;;;;;;3.60;2.00;;;;;;;25.76;52.47;100492.38;5053323;28;20024;-60
2023/08/25 05:39:24;;;;;;;7.40;2.00;;;;;;;25.89;52.78;100492.16;5054475;28;20053;-61
2023/08/25 05:41:50;;;;;;;5.15;2.53;;;;;;;26.01;52.16;100482.03;5053243;28;20460;-61
2023/08/25 05:44:16;;;;;;;4.03;1.80;;;;;;;26.17;52.32;100483.25;5054446;28;20025;-62
2023/08/25 05:46:41;;;;;;;2.08;1.52;;;;;;;26.30;52.38;100480.28;5054123;28;20396;-61
2023/08/25 05:49:07;;;;;;;3.75;2.30;;;;;;;26.43;52.20;100488.25;5053992;28;20059;-62
2023/08/25 05:51:32;;;;;;;2.65;1.77;;;;;;;26.52;52.32;100489.56;5052577;28;20033;-61
2023/08/25 05:53:57;;;;;;;3.95;1.77;;;;;;;26.62;52.51;100484.25;5052755;28;20048;-61
2023/08/25 05:56:23;;;;;;;4.43;2.00;;;;;;;26.67;51.94;100481.63;5052446;28;20052;-61
2023/08/25 05:58:48;;;;;;;4.70;1.95;;;;;;;26.66;52.80;100452.47;5052644;28;20036;-62
2023/08/25 06:01:14;;;;;;;6.10;2.42;;;;;;;26.62;52.87;100454.03;5035910;28;20037;-60
2023/08/25 06:03:40;;;;;;;5.78;2.22;;;;;;;26.51;53.34;100458.50;5053914;28;20087;-61
2023/08/25 06:06:06;;;;;;;5.15;1.48;;;;;;;26.38;53.89;100433.19;5052127;28;20029;-61
2023/08/25 06:08:31;;;;;;;3.65;1.80;;;;;;;26.27;53.14;100425.81;5052383;28;20037;-62
2023/08/25 06:10:57;;;;;;;8.38;2.58;;;;;;;26.20;54.16;100438.81;5052378;28;20409;-61
2023/08/25 06:13:22;;;;;;;4.13;1.88;;;;;;;26.17;53.69;100455.78;5035663;28;20061;-61
2023/08/25 06:15:48;;;;;;;6.93;2.30;;;;;;;26.13;54.12;100468.31;5052399;28;20103;-62
2023/08/25 06:18:14;;;;;;;6.03;2.30;;;;;;;26.09;54.77;100487.16;5052138;28;20041;-61
2023/08/25 06:20:40;;;;;;;3.63;2.13;;;;;;;26.10;54.57;100479.75;5035540;28;20047;-61
2023/08/25 06:23:06;;;;;;;4.78;2.05;;;;;;;26.10;54.60;100463.28;5052263;28;20055;-61
2023/08/25 06:25:31;;;;;;;2.97;2.10;;;;;;;26.06;54.73;100457.44;5053317;28;20378;-61
2023/08/25 06:27:56;;;;;;;11.77;2.20;;;;;;;26.02;54.75;100522.13;5053298;28;20056;-62
2023/08/25 06:30:22;;;;;;;4.05;2.22;;;;;;;25.99;54.47;100556.38;5051927;28;20037;-62
2023/08/25 06:32:47;;;;;;;5.00;2.17;;;;;;;25.96;54.94;100584.31;5052022;28;20442;-61
2023/08/25 06:35:13;;;;;;;8.45;2.45;;;;;;;25.86;55.00;100677.38;5053176;28;20029;-61
2023/08/25 06:37:39;;;;;;;18.55;3.88;;;;;;;25.68;55.35;100651.91;5052101;28;20033;-64
2023/08/25 06:40:07;;;;;;;5.28;1.20;;;;;;;25.33;55.57;100462.44;5053165;28;20037;-61
2023/08/25 06:42:37;;;;;;;2.28;1.30;;;;;;;25.10;55.84;100429.47;5053277;28;20033;-62
2023/08/25 06:45:03;;;;;;;5.32;2.22;;;;;;;24.87;56.02;100403.63;5052070;28;20036;-62
2023/08/25 06:47:28;;;;;;;1.55;0.90;;;;;;;24.65;56.17;100387.94;5051887;28;20041;-62
2023/08/25 06:49:54;;;;;;;4.40;1.15;;;;;;;24.53;56.35;100389.78;5051937;28;20538;-62
2023/08/25 06:52:21;;;;;;;3.55;0.90;;;;;;;24.40;56.93;100442.78;5053318;28;20045;-62
2023/08/25 06:54:46;;;;;;;3.92;1.00;;;;;;;24.36;56.84;100510.03;5051759;28;20094;-62
2023/08/25 06:57:12;;;;;;;3.95;1.42;;;;;;;24.30;57.53;100609.53;5053069;28;20404;-61
2023/08/25 06:59:37;;;;;;;8.02;1.88;;;;;;;24.28;57.62;100660.94;5051744;28;20029;-61
2023/08/25 07:02:03;;;;;;;7.38;2.90;;;;;;;24.30;57.95;100623.22;5052750;28;20037;-63
2023/08/25 07:04:29;;;;;;;5.47;1.33;;;;;;;24.26;57.57;100532.47;5053061;28;20040;-63
2023/08/25 07:06:54;;;;;;;10.88;1.60;;;;;;;24.26;57.61;100559.84;5051591;28;20037;-63
2023/08/25 07:09:19;;;;;;;5.50;1.52;;;;;;;24.22;57.62;100547.69;5052737;28;20041;-63
2023/08/25 07:11:45;;;;;;;6.07;1.23;;;;;;;24.13;57.89;100531.75;5051496;28;20396;-63
2023/08/25 07:14:10;;;;;;;3.67;1.25;;;;;;;24.00;57.87;100457.94;5051468;28;20404;-62
2023/08/25 07:16:35;;;;;;;3.13;1.05;;;;;;;23.92;58.19;100411.72;5051218;28;20025;-62
2023/08/25 07:19:01;;;;;;;7.28;1.73;;;;;;;23.89;58.32;100415.75;5051139;28;20060;-62
2023/08/25 07:21:26;;;;;;;5.38;1.88;;;;;;;23.91;58.75;100440.16;5051603;28;20036;-61
2023/08/25 07:23:51;;;;;;;4.40;1.92;;;;;;;23.92;58.96;100475.50;5053100;28;20493;-61
2023/08/25 07:26:17;;;;;;;4.03;2.22;;;;;;;23.95;58.87;100507.06;5052692;28;20033;-62
2023/08/25 07:28:42;;;;;;;7.82;2.58;;;;;;;23.98;59.03;100531.25;5052746;28;20540;-61
2023/08/25 07:31:07;;;;;;;4.13;1.95;;;;;;;23.96;59.15;100536.06;5052787;28;20057;-62
2023/08/25 07:33:33;;;;;;;3.63;1.88;;;;;;;23.99;59.15;100531.00;5052932;28;20044;-61
2023/08/25 07:35:58;;;;;;;6.35;1.88;;;;;;;23.99;59.07;100531.00;5052551;28;20029;-61
2023/08/25 07:38:24;;;;;;;3.65;1.48;;;;;;;23.98;58.50;100545.72;5051193;28;20439;-61
2023/08/25 07:40:50;;;;;;;4.88;2.38;;;;;;;23.99;58.82;100546.59;5051337;28;20037;-62
2023/08/25 07:43:15;;;;;;;4.75;1.83;;;;;;;23.99;58.67;100531.00;5034545;28;20036;-61
2023/08/25 07:45:41;;;;;;;2.75;1.17;;;;;;;24.03;58.57;100528.66;5051188;28;20394;-61
2023/08/25 07:48:07;;;;;;;4.78;1.60;;;;;;;24.04;58.62;100546.75;5051011;28;20037;-62
2023/08/25 07:50:32;;;;;;;2.20;1.15;;;;;;;24.07;58.71;100547.13;5052107;28;20041;-64
2023/08/25 07:52:58;;;;;;;5.82;1.20;;;;;;;24.10;58.47;100535.78;5051433;28;20025;-62
2023/08/25 07:55:24;;;;;;;4.05;1.20;;;;;;;24.12;58.62;100530.09;5051384;28;20032;-62
2023/08/25 07:57:50;;;;;;;3.67;1.35;;;;;;;24.21;58.50;100523.25;5051178;28;20112;-62
2023/08/25 08:00:18;;;;;;;2.25;2.00;;;;;;;24.26;58.66;100520.69;5051767;28;20535;-62
2023/08/25 08:02:47;;;;;;;2.85;1.63;;;;;;;24.28;58.61;100532.25;5053417;28;20029;-61
2023/08/25 08:05:17;;;;;;;3.78;1.42;;;;;;;24.27;58.79;100538.78;5051269;28;20055;-62
2023/08/25 08:07:44;;;;;;;1.88;1.10;;;;;;;24.29;58.69;100545.69;5052407;28;20028;-62
2023/08/25 08:10:10;;;;;;;2.33;1.00;;;;;;;24.31;58.64;100540.00;5051331;28;20051;-61
2023/08/25 08:12:36;;;;;;;1.90;0.80;;;;;;;24.35;58.56;100543.97;5051129;28;20016;-61
2023/08/25 08:15:03;;;;;;;3.30;1.42;;;;;;;24.39;58.87;100547.94;5050935;28;20472;-62
2023/08/25 08:17:29;;;;;;;3.53;1.00;;;;;;;24.42;58.79;100560.34;5050948;28;20135;-61
2023/08/25 08:19:54;;;;;;;2.10;1.00;;;;;;;24.48;58.84;100567.66;5051134;28;20029;-61
2023/08/25 08:22:20;;;;;;;7.32;1.55;;;;;;;24.52;58.58;100523.13;5052066;28;20041;-62
2023/08/25 08:24:49;;;;;;;8.23;1.23;;;;;;;24.55;58.85;100513.63;5050946;28;20043;-61
2023/08/25 08:27:18;;;;;;;4.15;1.33;;;;;;;24.54;58.66;100515.53;5050863;28;20036;-62
2023/08/25 08:29:45;;;;;;;4.35;1.25;;;;;;;24.54;58.52;100522.94;5035796;28;20072;-62
2023/08/25 08:32:12;;;;;;;4.55;1.80;;;;;;;24.59;58.73;100521.19;5054498;28;20044;-62
2023/08/25 08:34:38;;;;;;;2.80;1.42;;;;;;;24.68;58.71;100525.25;5054603;28;20037;-62
2023/08/25 08:37:06;;;;;;;1.80;0.85;;;;;;;24.73;58.51;100555.59;5055482;28;20037;-63
2023/08/25 08:39:37;;;;;;;2.90;1.08;;;;;;;24.90;58.68;100556.66;5055462;28;20063;-63
2023/08/25 08:42:03;;;;;;;1.98;1.60;;;;;;;25.03;58.02;100566.63;5054314;28;20412;-63
2023/08/25 08:44:30;;;;;;;3.08;1.00;;;;;;;25.08;58.66;100580.47;5054095;28;20033;-63
2023/08/25 08:46:57;;;;;;;3.97;1.05;;;;;;;25.07;58.55;100588.94;5037562;28;20033;-62
2023/08/25 08:49:24;;;;;;;3.78;1.10;;;;;;;25.06;58.80;100571.66;5054053;28;20420;-63
2023/08/25 08:51:50;;;;;;;2.08;1.38;;;;;;;25.07;58.71;100547.81;5055520;28;20037;-62
2023/08/25 08:54:19;;;;;;;3.63;1.15;;;;;;;25.08;58.57;100538.50;5054044;28;20022;-62
2023/08/25 08:56:45;;;;;;;2.50;1.15;;;;;;;25.06;58.55;100522.31;5053910;28;20029;-62
2023/08/25 08:59:11;;;;;;;3.97;1.30;;;;;;;25.03;59.02;100521.94;5053880;28;20408;-62
2023/08/25 09:01:38;;;;;;;3.03;1.15;;;;;;;25.01;58.82;100544.09;5055124;28;20025;-62
2023/08/25 09:04:06;;;;;;;4.82;1.30;;;;;;;24.97;58.63;100539.28;5055435;28;20037;-61
2023/08/25 09:06:35;;;;;;;6.85;1.63;;;;;;;24.84;58.91;100576.78;5053916;28;20424;-63
2023/08/25 09:09:04;;;;;;;6.60;1.48;;;;;;;24.70;59.12;100616.31;5053764;28;20033;-62
2023/08/25 09:11:30;;;;;;;2.85;1.52;;;;;;;24.61;58.60;100589.41;5053750;28;20031;-63
2023/08/25 09:13:57;;;;;;;7.15;1.50;;;;;;;24.49;59.71;100536.44;5055027;28;20116;-63
2023/08/25 09:16:23;;;;;;;3.55;1.10;;;;;;;24.41;59.09;100507.47;5054742;28;20036;-63
2023/08/25 09:18:49;;;;;;;4.47;1.70;;;;;;;24.34;59.66;100510.25;5053365;28;20098;-62
2023/08/25 09:21:20;;;;;;;3.28;1.88;;;;;;;24.32;59.73;100519.75;5054789;28;20040;-63
2023/08/25 09:23:54;;;;;;;3.90;1.50;;;;;;;24.32;59.63;100538.94;5053523;28;20029;-63
2023/08/25 09:26:20;;;;;;;3.65;1.48;;;;;;;24.33;59.66;100537.88;5054651;28;20026;-63
2023/08/25 09:28:45;;;;;;;4.75;1.83;;;;;;;24.37;59.78;100547.34;5053322;28;20045;-63
2023/08/25 09:31:25;;;;;;;3.25;2.30;;;;;;;24.41;59.88;100556.75;5053378;28;20123;-63
2023/08/25 09:33:52;;;;;;;5.38;1.77;;;;;;;24.45;60.12;100540.72;5054605;28;20067;-63
2023/08/25 09:36:18;;;;;;;5.25;1.70;;;;;;;24.48;60.03;100523.84;5053078;28;20115;-63
2023/08/25 09:38:45;;;;;;;4.40;1.83;;;;;;;24.55;59.95;100536.38;5054523;28;20091;-62
2023/08/25 09:41:13;;;;;;;3.17;1.55;;;;;;;24.59;59.72;100554.06;5052723;28;20539;-63
2023/08/25 09:43:39;;;;;;;4.32;1.60;;;;;;;24.63;59.93;100576.31;5054365;28;20087;-63
2023/08/25 09:46:08;;;;;;;2.40;1.52;;;;;;;24.66;60.30;100586.84;5036442;28;20037;-63
2023/08/25 09:48:34;;;;;;;3.63;1.77;;;;;;;24.69;59.94;100579.00;5053218;28;20036;-63
2023/08/25 09:51:00;;;;;;;3.38;0.82;;;;;;;24.69;60.05;100548.03;5054300;28;20033;-63
2023/08/25 09:53:25;;;;;;;1.55;0.60;;;;;;;24.66;59.66;100554.81;5052890;28;20513;-63
2023/08/25 09:55:56;;;;;;;1.13;0.55;;;;;;;24.63;59.93;100555.25;5053420;28;20434;-63
2023/08/25 09:58:22;;;;;;;0.47;0.40;;;;;;;24.63;59.59;100559.88;5052938;28;20041;-63
2023/08/25 10:00:48;;;;;;;0.50;0.38;;;;;;;24.59;59.65;100543.09;5052823;28;20029;-62
2023/08/25 10:03:14;;;;;;;0.98;0.45;;;;;;;24.57;59.33;100523.28;5052876;28;20072;-63
2023/08/25 10:05:42;;;;;;;1.55;0.57;;;;;;;24.58;59.85;100544.16;5052920;28;20057;-63
2023/08/25 10:08:09;;;;;;;0.22;0.22;;;;;;;24.56;59.19;100538.06;5054001;28;20037;-63
2023/08/25 10:10:36;;;;;;;3.17;0.50;;;;;;;24.61;59.44;100535.47;5052946;28;20496;-63
2023/08/25 10:13:03;;;;;;;0.85;0.38;;;;;;;24.66;59.71;100521.94;5052605;28;20033;-62
2023/08/25 10:15:30;;;;;;;1.58;0.68;;;;;;;24.72;59.75;100528.41;5052665;28;20053;-62
2023/08/25 10:18:06;;;;;;;2.67;0.65;;;;;;;24.85;59.17;100531.84;5053429;28;20040;-61
2023/08/25 10:20:33;;;;;;;1.77;0.63;;;;;;;24.93;59.17;100538.09;5053355;28;20515;-63
2023/08/25 10:23:00;;;;;;;1.65;0.63;;;;;;;24.97;59.68;100528.31;5053838;28;20036;-63
2023/08/25 10:25:29;;;;;;;1.25;0.90;;;;;;;25.05;59.49;100574.63;5035463;28;20025;-63
2023/08/25 10:27:56;;;;;;;1.55;0.80;;;;;;;25.09;59.44;100537.47;5052197;28;20028;-64
2023/08/25 10:30:21;;;;;;;3.00;0.90;;;;;;;25.13;59.73;100571.56;5035687;28;20029;-62
2023/08/25 10:32:54;;;;;;;2.38;1.00;;;;;;;25.16;59.36;100549.16;5052041;28;20064;-62
2023/08/25 10:35:49;;;;;;;2.05;0.70;;;;;;;25.19;59.79;100559.66;5033469;28;20032;-62
2023/08/25 10:38:17;;;;;;;8.85;1.50;;;;;;;25.18;59.94;100599.16;5031130;28;20123;-62
2023/08/25 10:40:43;;;;;;;5.20;1.02;;;;;;;25.14;59.80;100606.13;5053490;28;20029;-62
2023/08/25 10:43:08;;;;;;;2.95;0.88;;;;;;;25.11;59.99;100591.00;5053300;28;20086;-63
2023/08/25 10:45:35;;;;;;;2.33;1.00;;;;;;;25.08;59.98;100579.63;5052214;28;20048;-64
2023/08/25 10:48:01;;;;;;;4.53;1.60;;;;;;;25.08;59.73;100568.66;5051920;28;20039;-62
2023/08/25 10:50:26;;;;;;;2.75;0.70;;;;;;;25.07;59.85;100550.56;5051249;28;20040;-61
2023/08/25 10:52:52;;;;;;;2.65;1.15;;;;;;;25.10;59.87;100545.44;5051387;28;20033;-61
2023/08/25 10:55:26;;;;;;;0.65;0.65;;;;;;;25.14;60.12;100551.31;5053003;28;20394;-62
2023/08/25 10:57:53;;;;;;;6.38;0.70;;;;;;;25.16;60.03;100557.38;5052086;28;20048;-62
2023/08/25 11:00:36;;;;;;;1.83;0.70;;;;;;;25.19;59.66;100529.50;5051786;28;20511;-61
2023/08/25 11:03:02;;;;;;;2.42;0.80;;;;;;;25.32;59.64;100501.91;5051877;28;20048;-62
2023/08/25 11:05:31;;;;;;;3.97;0.73;;;;;;;25.56;59.29;100484.47;5051849;28;20044;-63
2023/08/25 11:07:58;;;;;;;2.72;0.70;;;;;;;25.79;58.96;100497.41;5050595;28;20116;-63
2023/08/25 11:10:25;;;;;;;1.40;0.90;;;;;;;26.04;58.77;100509.00;5035066;28;20489;-62
2023/08/25 11:12:52;;;;;;;1.55;0.50;;;;;;;27.12;57.84;100523.84;5034925;28;20029;-62
2023/08/25 11:15:18;;;;;;;4.78;0.93;;;;;;;27.93;57.20;100530.00;5051550;28;20036;-61
2023/08/25 11:17:46;;;;;;;1.42;0.77;;;;;;;28.09;56.15;100521.78;5052764;28;20413;-61
2023/08/25 11:20:12;;;;;;;2.15;0.82;;;;;;;28.30;57.15;100525.69;5033662;28;20041;-61